sensor_id;sensor_type;location;lat;lon;timestamp;temperature;humidity
12470;DHT22;36499;46.484;13.832;2022-12-18T00:01:17;-0.50;99.90
12470;DHT22;36499;46.484;13.832;2022-12-18T00:03:45;-0.50;99.90
12470;DHT22;36499;46.484;13.832;2022-12-18T00:06:13;-0.50;99.90
12470;DHT22;36499;46.484;13.832;2022-12-18T00:08:41;-0.50;99.90
12470;DHT22;36499;46.484;13.832;2022-12-18T00:11:12;-0.50;99.90
12470;DHT22;36499;46.484;13.832;2022-12-18T00:13:40;-0.50;99.90
12470;DHT22;36499;46.484;13.832;2022-12-18T00:16:11;-0.50;99.90
12470;DHT22;36499;46.484;13.832;2022-12-18T00:18:39;-0.50;99.90
12470;DHT22;36499;46.484;13.832;2022-12-18T00:21:09;-0.60;99.90
12470;DHT22;36499;46.484;13.832;2022-12-18T00:23:38;-0.60;99.90
12470;DHT22;36499;46.484;13.832;2022-12-18T00:26:09;-0.60;99.90
12470;DHT22;36499;46.484;13.832;2022-12-18T00:28:38;-0.50;99.90
12470;DHT22;36499;46.484;13.832;2022-12-18T00:31:06;-0.60;99.90
12470;DHT22;36499;46.484;13.832;2022-12-18T00:33:36;-0.60;99.90
12470;DHT22;36499;46.484;13.832;2022-12-18T00:36:06;-0.60;99.90
12470;DHT22;36499;46.484;13.832;2022-12-18T00:38:35;-0.60;99.90
12470;DHT22;36499;46.484;13.832;2022-12-18T00:41:03;-0.60;99.90
12470;DHT22;36499;46.484;13.832;2022-12-18T00:43:34;-0.60;99.90
12470;DHT22;36499;46.484;13.832;2022-12-18T00:46:00;-0.60;99.90
12470;DHT22;36499;46.484;13.832;2022-12-18T00:48:29;-0.60;99.90
12470;DHT22;36499;46.484;13.832;2022-12-18T00:50:56;-0.60;99.90
12470;DHT22;36499;46.484;13.832;2022-12-18T00:53:23;-0.60;99.90
12470;DHT22;36499;46.484;13.832;2022-12-18T00:55:50;-0.60;99.90
12470;DHT22;36499;46.484;13.832;2022-12-18T00:58:17;-0.60;99.90
12470;DHT22;36499;46.484;13.832;2022-12-18T01:00:45;-0.70;99.90
12470;DHT22;36499;46.484;13.832;2022-12-18T01:03:13;-0.60;99.90
12470;DHT22;36499;46.484;13.832;2022-12-18T01:05:42;-0.60;99.90
12470;DHT22;36499;46.484;13.832;2022-12-18T01:08:09;-0.60;99.90
12470;DHT22;36499;46.484;13.832;2022-12-18T01:10:36;-0.60;99.90
12470;DHT22;36499;46.484;13.832;2022-12-18T01:13:06;-0.60;99.90
12470;DHT22;36499;46.484;13.832;2022-12-18T01:15:34;-0.60;99.90
12470;DHT22;36499;46.484;13.832;2022-12-18T01:18:01;-0.60;99.90
12470;DHT22;36499;46.484;13.832;2022-12-18T01:20:28;-0.70;99.90
12470;DHT22;36499;46.484;13.832;2022-12-18T01:22:56;-0.60;99.90
12470;DHT22;36499;46.484;13.832;2022-12-18T01:25:23;-0.70;99.90
12470;DHT22;36499;46.484;13.832;2022-12-18T01:27:50;-0.60;99.90
12470;DHT22;36499;46.484;13.832;2022-12-18T01:30:17;-0.60;99.90
12470;DHT22;36499;46.484;13.832;2022-12-18T01:32:45;-0.70;99.90
12470;DHT22;36499;46.484;13.832;2022-12-18T01:35:12;-0.70;99.90
12470;DHT22;36499;46.484;13.832;2022-12-18T01:37:39;-0.70;99.90
12470;DHT22;36499;46.484;13.832;2022-12-18T01:40:08;-0.70;99.90
12470;DHT22;36499;46.484;13.832;2022-12-18T01:42:36;-0.70;99.90
12470;DHT22;36499;46.484;13.832;2022-12-18T01:45:08;-0.70;99.90
12470;DHT22;36499;46.484;13.832;2022-12-18T01:47:51;-0.70;99.90
12470;DHT22;36499;46.484;13.832;2022-12-18T01:50:22;-0.60;99.90
12470;DHT22;36499;46.484;13.832;2022-12-18T01:52:55;-0.60;99.90
12470;DHT22;36499;46.484;13.832;2022-12-18T01:55:28;-0.60;99.90
12470;DHT22;36499;46.484;13.832;2022-12-18T01:57:59;-0.70;99.90
12470;DHT22;36499;46.484;13.832;2022-12-18T02:00:27;-0.70;99.90
12470;DHT22;36499;46.484;13.832;2022-12-18T02:02:55;-0.70;99.90
12470;DHT22;36499;46.484;13.832;2022-12-18T02:05:29;-0.80;99.90
12470;DHT22;36499;46.484;13.832;2022-12-18T02:08:10;-0.80;99.90
12470;DHT22;36499;46.484;13.832;2022-12-18T02:10:47;-0.80;99.90
12470;DHT22;36499;46.484;13.832;2022-12-18T02:13:27;-0.80;99.90
12470;DHT22;36499;46.484;13.832;2022-12-18T02:16:06;-0.80;99.90
12470;DHT22;36499;46.484;13.832;2022-12-18T02:18:42;-0.80;99.90
12470;DHT22;36499;46.484;13.832;2022-12-18T02:21:23;-0.70;99.90
12470;DHT22;36499;46.484;13.832;2022-12-18T02:24:08;-0.80;99.90
12470;DHT22;36499;46.484;13.832;2022-12-18T02:26:47;-0.80;99.90
12470;DHT22;36499;46.484;13.832;2022-12-18T02:29:21;-0.80;99.90
12470;DHT22;36499;46.484;13.832;2022-12-18T02:31:55;-0.80;99.90
12470;DHT22;36499;46.484;13.832;2022-12-18T02:34:29;-0.80;99.90
12470;DHT22;36499;46.484;13.832;2022-12-18T02:37:01;-0.80;99.90
12470;DHT22;36499;46.484;13.832;2022-12-18T02:39:33;-0.80;99.90
12470;DHT22;36499;46.484;13.832;2022-12-18T02:42:04;-0.80;99.90
12470;DHT22;36499;46.484;13.832;2022-12-18T02:44:33;-0.80;99.90
12470;DHT22;36499;46.484;13.832;2022-12-18T02:47:01;-0.80;99.90
12470;DHT22;36499;46.484;13.832;2022-12-18T02:49:34;-0.80;99.90
12470;DHT22;36499;46.484;13.832;2022-12-18T02:52:12;-0.80;99.90
12470;DHT22;36499;46.484;13.832;2022-12-18T02:54:57;-0.90;99.90
12470;DHT22;36499;46.484;13.832;2022-12-18T02:57:39;-0.90;99.90
12470;DHT22;36499;46.484;13.832;2022-12-18T03:00:15;-0.80;99.90
12470;DHT22;36499;46.484;13.832;2022-12-18T03:02:48;-0.90;99.90
12470;DHT22;36499;46.484;13.832;2022-12-18T03:05:27;-0.90;99.90
12470;DHT22;36499;46.484;13.832;2022-12-18T03:08:01;-0.90;99.90
12470;DHT22;36499;46.484;13.832;2022-12-18T03:10:35;-0.90;99.90
12470;DHT22;36499;46.484;13.832;2022-12-18T03:13:12;-0.90;99.90
12470;DHT22;36499;46.484;13.832;2022-12-18T03:15:48;-0.80;99.90
12470;DHT22;36499;46.484;13.832;2022-12-18T03:18:21;-0.90;99.90
12470;DHT22;36499;46.484;13.832;2022-12-18T03:20:54;-0.80;99.90
12470;DHT22;36499;46.484;13.832;2022-12-18T03:23:27;-0.80;99.90
12470;DHT22;36499;46.484;13.832;2022-12-18T03:26:01;-0.70;99.90
12470;DHT22;36499;46.484;13.832;2022-12-18T03:28:36;-0.80;99.90
12470;DHT22;36499;46.484;13.832;2022-12-18T03:31:09;-0.80;99.90
12470;DHT22;36499;46.484;13.832;2022-12-18T03:33:42;-0.80;99.90
12470;DHT22;36499;46.484;13.832;2022-12-18T03:36:14;-0.70;99.90
12470;DHT22;36499;46.484;13.832;2022-12-18T03:38:41;-0.70;99.90
12470;DHT22;36499;46.484;13.832;2022-12-18T03:41:15;-0.70;99.90
12470;DHT22;36499;46.484;13.832;2022-12-18T03:43:52;-0.80;99.90
12470;DHT22;36499;46.484;13.832;2022-12-18T03:46:33;-0.80;99.90
12470;DHT22;36499;46.484;13.832;2022-12-18T03:49:10;-0.80;99.90
12470;DHT22;36499;46.484;13.832;2022-12-18T03:51:44;-0.80;99.90
12470;DHT22;36499;46.484;13.832;2022-12-18T03:54:19;-0.80;99.90
12470;DHT22;36499;46.484;13.832;2022-12-18T03:56:51;-0.80;99.90
12470;DHT22;36499;46.484;13.832;2022-12-18T03:59:25;-0.90;99.90
12470;DHT22;36499;46.484;13.832;2022-12-18T04:01:56;-0.90;99.90
12470;DHT22;36499;46.484;13.832;2022-12-18T04:04:27;-0.90;99.90
12470;DHT22;36499;46.484;13.832;2022-12-18T04:06:57;-0.90;99.90
12470;DHT22;36499;46.484;13.832;2022-12-18T04:09:25;-0.90;99.90
12470;DHT22;36499;46.484;13.832;2022-12-18T04:11:53;-0.90;99.90
12470;DHT22;36499;46.484;13.832;2022-12-18T04:14:20;-0.90;99.90
12470;DHT22;36499;46.484;13.832;2022-12-18T04:16:49;-0.90;99.90
12470;DHT22;36499;46.484;13.832;2022-12-18T04:19:16;-0.90;99.90
12470;DHT22;36499;46.484;13.832;2022-12-18T04:21:43;-0.90;99.90
12470;DHT22;36499;46.484;13.832;2022-12-18T04:24:10;-0.90;99.90
12470;DHT22;36499;46.484;13.832;2022-12-18T04:26:37;-0.90;99.90
12470;DHT22;36499;46.484;13.832;2022-12-18T04:31:34;-0.90;99.90
12470;DHT22;36499;46.484;13.832;2022-12-18T04:34:03;-0.90;99.90
12470;DHT22;36499;46.484;13.832;2022-12-18T04:36:30;-0.80;99.90
12470;DHT22;36499;46.484;13.832;2022-12-18T04:38:57;-0.90;99.90
12470;DHT22;36499;46.484;13.832;2022-12-18T04:41:24;-0.80;99.90
12470;DHT22;36499;46.484;13.832;2022-12-18T04:43:51;-0.90;99.90
12470;DHT22;36499;46.484;13.832;2022-12-18T04:46:19;-0.90;99.90
12470;DHT22;36499;46.484;13.832;2022-12-18T04:48:46;-0.90;99.90
12470;DHT22;36499;46.484;13.832;2022-12-18T04:51:15;-0.90;99.90
12470;DHT22;36499;46.484;13.832;2022-12-18T04:53:42;-0.90;99.90
12470;DHT22;36499;46.484;13.832;2022-12-18T04:56:10;-0.90;99.90
12470;DHT22;36499;46.484;13.832;2022-12-18T04:58:41;-0.90;99.90
12470;DHT22;36499;46.484;13.832;2022-12-18T05:01:10;-0.90;99.90
12470;DHT22;36499;46.484;13.832;2022-12-18T05:03:39;-1.00;99.90
12470;DHT22;36499;46.484;13.832;2022-12-18T05:06:07;-0.90;99.90
12470;DHT22;36499;46.484;13.832;2022-12-18T05:08:36;-1.00;99.90
12470;DHT22;36499;46.484;13.832;2022-12-18T05:11:05;-1.00;99.90
12470;DHT22;36499;46.484;13.832;2022-12-18T05:13:34;-1.00;99.90
12470;DHT22;36499;46.484;13.832;2022-12-18T05:16:03;-1.00;99.90
12470;DHT22;36499;46.484;13.832;2022-12-18T05:18:31;-1.00;99.90
12470;DHT22;36499;46.484;13.832;2022-12-18T05:20:59;-1.00;99.90
12470;DHT22;36499;46.484;13.832;2022-12-18T05:23:26;-1.00;99.90
12470;DHT22;36499;46.484;13.832;2022-12-18T05:25:57;-1.00;99.90
12470;DHT22;36499;46.484;13.832;2022-12-18T05:28:27;-1.00;99.90
12470;DHT22;36499;46.484;13.832;2022-12-18T05:30:56;-0.90;99.90
12470;DHT22;36499;46.484;13.832;2022-12-18T05:33:27;-0.90;99.90
12470;DHT22;36499;46.484;13.832;2022-12-18T05:35:58;-0.90;99.90
12470;DHT22;36499;46.484;13.832;2022-12-18T05:38:27;-1.00;99.90
12470;DHT22;36499;46.484;13.832;2022-12-18T05:40:56;-1.00;99.90
12470;DHT22;36499;46.484;13.832;2022-12-18T05:43:25;-1.00;99.90
12470;DHT22;36499;46.484;13.832;2022-12-18T05:45:53;-1.00;99.90
12470;DHT22;36499;46.484;13.832;2022-12-18T05:48:21;-1.00;99.90
12470;DHT22;36499;46.484;13.832;2022-12-18T05:50:49;-1.00;99.90
12470;DHT22;36499;46.484;13.832;2022-12-18T05:53:19;-1.10;99.90
12470;DHT22;36499;46.484;13.832;2022-12-18T05:55:47;-1.10;99.90
12470;DHT22;36499;46.484;13.832;2022-12-18T05:58:15;-1.10;99.90
12470;DHT22;36499;46.484;13.832;2022-12-18T06:00:44;-1.10;99.90
12470;DHT22;36499;46.484;13.832;2022-12-18T06:03:13;-1.10;99.90
12470;DHT22;36499;46.484;13.832;2022-12-18T06:05:42;-1.00;99.90
12470;DHT22;36499;46.484;13.832;2022-12-18T06:08:11;-1.00;99.90
12470;DHT22;36499;46.484;13.832;2022-12-18T06:10:39;-1.10;99.90
12470;DHT22;36499;46.484;13.832;2022-12-18T06:13:07;-1.10;99.90
12470;DHT22;36499;46.484;13.832;2022-12-18T06:15:37;-1.10;99.90
12470;DHT22;36499;46.484;13.832;2022-12-18T06:18:04;-1.00;99.90
12470;DHT22;36499;46.484;13.832;2022-12-18T06:20:31;-1.10;99.90
12470;DHT22;36499;46.484;13.832;2022-12-18T06:23:02;-1.10;99.90
12470;DHT22;36499;46.484;13.832;2022-12-18T06:25:30;-1.10;99.90
12470;DHT22;36499;46.484;13.832;2022-12-18T06:27:57;-1.10;99.90
12470;DHT22;36499;46.484;13.832;2022-12-18T06:30:24;-1.10;99.90
12470;DHT22;36499;46.484;13.832;2022-12-18T06:32:53;-1.20;99.90
12470;DHT22;36499;46.484;13.832;2022-12-18T06:35:20;-1.10;99.90
12470;DHT22;36499;46.484;13.832;2022-12-18T06:37:47;-1.10;99.90
12470;DHT22;36499;46.484;13.832;2022-12-18T06:40:14;-1.00;99.90
12470;DHT22;36499;46.484;13.832;2022-12-18T06:42:41;-1.10;99.90
12470;DHT22;36499;46.484;13.832;2022-12-18T06:45:09;-1.10;99.90
12470;DHT22;36499;46.484;13.832;2022-12-18T06:47:36;-1.10;99.90
12470;DHT22;36499;46.484;13.832;2022-12-18T06:50:06;-1.10;99.90
12470;DHT22;36499;46.484;13.832;2022-12-18T06:52:34;-1.20;99.90
12470;DHT22;36499;46.484;13.832;2022-12-18T06:55:02;-1.10;99.90
12470;DHT22;36499;46.484;13.832;2022-12-18T06:57:30;-1.10;99.90
12470;DHT22;36499;46.484;13.832;2022-12-18T06:59:57;-1.10;99.90
12470;DHT22;36499;46.484;13.832;2022-12-18T07:02:24;-1.10;99.90
12470;DHT22;36499;46.484;13.832;2022-12-18T07:04:51;-1.10;99.90
12470;DHT22;36499;46.484;13.832;2022-12-18T07:07:20;-1.20;99.90
12470;DHT22;36499;46.484;13.832;2022-12-18T07:09:47;-1.10;99.90
12470;DHT22;36499;46.484;13.832;2022-12-18T07:12:15;-1.10;99.90
12470;DHT22;36499;46.484;13.832;2022-12-18T07:14:43;-1.10;99.90
12470;DHT22;36499;46.484;13.832;2022-12-18T07:17:12;-1.10;99.90
12470;DHT22;36499;46.484;13.832;2022-12-18T07:19:39;-0.90;99.90
12470;DHT22;36499;46.484;13.832;2022-12-18T07:22:06;-1.00;99.90
12470;DHT22;36499;46.484;13.832;2022-12-18T07:24:35;-1.00;99.90
12470;DHT22;36499;46.484;13.832;2022-12-18T07:27:02;-1.00;99.90
12470;DHT22;36499;46.484;13.832;2022-12-18T07:29:30;-0.90;99.90
12470;DHT22;36499;46.484;13.832;2022-12-18T07:31:57;-0.90;99.90
12470;DHT22;36499;46.484;13.832;2022-12-18T07:34:24;-0.90;99.90
12470;DHT22;36499;46.484;13.832;2022-12-18T07:36:51;-0.90;99.90
12470;DHT22;36499;46.484;13.832;2022-12-18T07:39:18;-0.90;99.90
12470;DHT22;36499;46.484;13.832;2022-12-18T07:41:47;-0.90;99.90
12470;DHT22;36499;46.484;13.832;2022-12-18T07:44:34;-0.80;99.90
12470;DHT22;36499;46.484;13.832;2022-12-18T07:47:01;-0.80;99.90
12470;DHT22;36499;46.484;13.832;2022-12-18T07:49:28;-0.50;99.90
12470;DHT22;36499;46.484;13.832;2022-12-18T07:51:56;-0.40;99.90
12470;DHT22;36499;46.484;13.832;2022-12-18T07:54:24;-0.40;99.90
12470;DHT22;36499;46.484;13.832;2022-12-18T07:56:53;-0.40;99.90
12470;DHT22;36499;46.484;13.832;2022-12-18T07:59:20;-0.40;99.90
12470;DHT22;36499;46.484;13.832;2022-12-18T08:01:47;0.00;99.90
12470;DHT22;36499;46.484;13.832;2022-12-18T08:04:14;0.10;99.90
12470;DHT22;36499;46.484;13.832;2022-12-18T08:06:41;0.10;99.90
12470;DHT22;36499;46.484;13.832;2022-12-18T08:09:10;0.00;99.90
12470;DHT22;36499;46.484;13.832;2022-12-18T08:11:37;0.00;99.90
12470;DHT22;36499;46.484;13.832;2022-12-18T08:14:06;-0.10;99.90
12470;DHT22;36499;46.484;13.832;2022-12-18T08:16:33;-0.20;99.90
12470;DHT22;36499;46.484;13.832;2022-12-18T08:19:00;-0.30;99.90
12470;DHT22;36499;46.484;13.832;2022-12-18T08:21:29;-0.30;99.90
12470;DHT22;36499;46.484;13.832;2022-12-18T08:23:59;-0.40;99.90
12470;DHT22;36499;46.484;13.832;2022-12-18T08:26:29;-0.40;99.90
12470;DHT22;36499;46.484;13.832;2022-12-18T08:28:59;-0.40;99.90
12470;DHT22;36499;46.484;13.832;2022-12-18T08:31:29;-0.50;99.90
12470;DHT22;36499;46.484;13.832;2022-12-18T08:33:58;-0.40;99.90
12470;DHT22;36499;46.484;13.832;2022-12-18T08:36:26;-0.40;99.90
12470;DHT22;36499;46.484;13.832;2022-12-18T08:38:53;-0.40;99.90
12470;DHT22;36499;46.484;13.832;2022-12-18T08:41:20;-0.40;99.90
12470;DHT22;36499;46.484;13.832;2022-12-18T08:43:48;-0.40;99.90
12470;DHT22;36499;46.484;13.832;2022-12-18T08:46:35;-0.50;99.90
12470;DHT22;36499;46.484;13.832;2022-12-18T08:49:05;-0.50;99.90
12470;DHT22;36499;46.484;13.832;2022-12-18T08:51:34;-0.40;99.90
12470;DHT22;36499;46.484;13.832;2022-12-18T08:54:02;-0.40;99.90
12470;DHT22;36499;46.484;13.832;2022-12-18T08:56:30;-0.50;99.90
12470;DHT22;36499;46.484;13.832;2022-12-18T08:58:58;-0.40;99.90
12470;DHT22;36499;46.484;13.832;2022-12-18T09:01:25;-0.40;99.90
12470;DHT22;36499;46.484;13.832;2022-12-18T09:03:54;-0.40;99.90
12470;DHT22;36499;46.484;13.832;2022-12-18T09:06:23;-0.40;99.90
12470;DHT22;36499;46.484;13.832;2022-12-18T09:08:52;-0.40;99.90
12470;DHT22;36499;46.484;13.832;2022-12-18T09:11:21;-0.30;99.90
12470;DHT22;36499;46.484;13.832;2022-12-18T09:13:50;-0.30;99.90
12470;DHT22;36499;46.484;13.832;2022-12-18T09:16:17;-0.30;99.90
12470;DHT22;36499;46.484;13.832;2022-12-18T09:18:45;-0.30;99.90
12470;DHT22;36499;46.484;13.832;2022-12-18T09:21:15;-0.30;99.90
12470;DHT22;36499;46.484;13.832;2022-12-18T09:23:43;-0.20;99.90
12470;DHT22;36499;46.484;13.832;2022-12-18T09:26:11;-0.20;99.90
12470;DHT22;36499;46.484;13.832;2022-12-18T09:28:38;-0.20;99.90
12470;DHT22;36499;46.484;13.832;2022-12-18T09:31:07;-0.30;99.90
12470;DHT22;36499;46.484;13.832;2022-12-18T09:33:35;-0.30;99.90
12470;DHT22;36499;46.484;13.832;2022-12-18T09:36:03;-0.20;99.90
12470;DHT22;36499;46.484;13.832;2022-12-18T09:38:34;-0.10;99.90
12470;DHT22;36499;46.484;13.832;2022-12-18T09:41:05;-0.10;99.90
12470;DHT22;36499;46.484;13.832;2022-12-18T09:43:47;-0.10;99.90
12470;DHT22;36499;46.484;13.832;2022-12-18T09:46:25;0.00;99.90
12470;DHT22;36499;46.484;13.832;2022-12-18T09:48:58;0.00;99.90
12470;DHT22;36499;46.484;13.832;2022-12-18T09:51:35;0.00;99.90
12470;DHT22;36499;46.484;13.832;2022-12-18T09:54:12;0.00;99.90
12470;DHT22;36499;46.484;13.832;2022-12-18T09:56:44;0.10;99.90
12470;DHT22;36499;46.484;13.832;2022-12-18T09:59:18;0.10;99.90
12470;DHT22;36499;46.484;13.832;2022-12-18T10:01:50;0.10;99.90
12470;DHT22;36499;46.484;13.832;2022-12-18T10:04:18;0.10;99.90
12470;DHT22;36499;46.484;13.832;2022-12-18T10:06:51;0.20;99.90
12470;DHT22;36499;46.484;13.832;2022-12-18T10:09:28;0.20;99.90
12470;DHT22;36499;46.484;13.832;2022-12-18T10:12:08;0.20;99.90
12470;DHT22;36499;46.484;13.832;2022-12-18T10:14:50;0.10;99.90
12470;DHT22;36499;46.484;13.832;2022-12-18T10:17:28;0.10;99.90
12470;DHT22;36499;46.484;13.832;2022-12-18T10:20:12;0.20;99.90
12470;DHT22;36499;46.484;13.832;2022-12-18T10:22:48;0.20;99.90
12470;DHT22;36499;46.484;13.832;2022-12-18T10:25:26;0.20;99.90
12470;DHT22;36499;46.484;13.832;2022-12-18T10:28:10;0.20;99.90
12470;DHT22;36499;46.484;13.832;2022-12-18T10:30:40;0.20;99.90
12470;DHT22;36499;46.484;13.832;2022-12-18T10:33:10;0.20;99.90
12470;DHT22;36499;46.484;13.832;2022-12-18T10:35:41;0.20;99.90
12470;DHT22;36499;46.484;13.832;2022-12-18T10:38:22;0.20;99.90
12470;DHT22;36499;46.484;13.832;2022-12-18T10:40:55;0.30;99.90
12470;DHT22;36499;46.484;13.832;2022-12-18T10:43:26;0.30;99.90
12470;DHT22;36499;46.484;13.832;2022-12-18T10:46:11;0.30;99.90
12470;DHT22;36499;46.484;13.832;2022-12-18T10:48:51;0.30;99.90
12470;DHT22;36499;46.484;13.832;2022-12-18T10:51:21;0.30;99.90
12470;DHT22;36499;46.484;13.832;2022-12-18T10:53:56;0.30;99.90
12470;DHT22;36499;46.484;13.832;2022-12-18T10:56:29;0.30;99.90
12470;DHT22;36499;46.484;13.832;2022-12-18T10:59:00;0.30;99.90
12470;DHT22;36499;46.484;13.832;2022-12-18T11:01:28;0.30;99.90
12470;DHT22;36499;46.484;13.832;2022-12-18T11:04:16;0.30;99.90
12470;DHT22;36499;46.484;13.832;2022-12-18T11:06:55;0.30;99.90
12470;DHT22;36499;46.484;13.832;2022-12-18T11:09:25;0.30;99.90
12470;DHT22;36499;46.484;13.832;2022-12-18T11:11:56;0.30;99.90
12470;DHT22;36499;46.484;13.832;2022-12-18T11:14:26;0.30;99.90
12470;DHT22;36499;46.484;13.832;2022-12-18T11:16:55;0.30;99.90
12470;DHT22;36499;46.484;13.832;2022-12-18T11:19:33;0.30;99.90
12470;DHT22;36499;46.484;13.832;2022-12-18T11:22:16;0.20;99.90
12470;DHT22;36499;46.484;13.832;2022-12-18T11:24:53;0.20;99.90
12470;DHT22;36499;46.484;13.832;2022-12-18T11:27:24;0.20;99.90
12470;DHT22;36499;46.484;13.832;2022-12-18T11:29:52;0.20;99.90
12470;DHT22;36499;46.484;13.832;2022-12-18T11:32:35;0.20;99.90
12470;DHT22;36499;46.484;13.832;2022-12-18T11:35:13;0.20;99.90
12470;DHT22;36499;46.484;13.832;2022-12-18T11:37:47;0.30;99.90
12470;DHT22;36499;46.484;13.832;2022-12-18T11:40:25;0.40;99.90
12470;DHT22;36499;46.484;13.832;2022-12-18T11:43:04;0.40;99.90
12470;DHT22;36499;46.484;13.832;2022-12-18T11:45:41;0.40;99.90
12470;DHT22;36499;46.484;13.832;2022-12-18T11:48:18;0.40;99.90
12470;DHT22;36499;46.484;13.832;2022-12-18T11:50:51;0.50;99.90
12470;DHT22;36499;46.484;13.832;2022-12-18T11:53:20;0.50;99.90
12470;DHT22;36499;46.484;13.832;2022-12-18T11:55:57;0.60;99.90
12470;DHT22;36499;46.484;13.832;2022-12-18T11:58:42;0.60;99.90
12470;DHT22;36499;46.484;13.832;2022-12-18T12:01:22;0.60;99.90
12470;DHT22;36499;46.484;13.832;2022-12-18T12:04:28;0.60;99.90
12470;DHT22;36499;46.484;13.832;2022-12-18T12:07:24;0.60;99.90
12470;DHT22;36499;46.484;13.832;2022-12-18T12:10:12;0.60;99.90
12470;DHT22;36499;46.484;13.832;2022-12-18T12:13:07;0.70;99.90
12470;DHT22;36499;46.484;13.832;2022-12-18T12:16:00;0.70;99.90
12470;DHT22;36499;46.484;13.832;2022-12-18T12:18:44;0.70;99.90
12470;DHT22;36499;46.484;13.832;2022-12-18T12:21:37;0.80;99.90
12470;DHT22;36499;46.484;13.832;2022-12-18T12:24:18;0.80;99.90
12470;DHT22;36499;46.484;13.832;2022-12-18T12:27:01;0.80;99.90
12470;DHT22;36499;46.484;13.832;2022-12-18T12:29:46;0.80;99.90
12470;DHT22;36499;46.484;13.832;2022-12-18T12:32:31;0.80;99.90
12470;DHT22;36499;46.484;13.832;2022-12-18T12:35:25;0.90;99.90
12470;DHT22;36499;46.484;13.832;2022-12-18T12:38:06;0.80;99.90
12470;DHT22;36499;46.484;13.832;2022-12-18T12:40:41;0.90;99.90
12470;DHT22;36499;46.484;13.832;2022-12-18T12:43:21;0.90;99.90
12470;DHT22;36499;46.484;13.832;2022-12-18T12:45:55;0.90;99.90
12470;DHT22;36499;46.484;13.832;2022-12-18T12:48:36;0.90;99.90
12470;DHT22;36499;46.484;13.832;2022-12-18T12:51:11;0.90;99.90
12470;DHT22;36499;46.484;13.832;2022-12-18T12:53:42;0.90;99.90
12470;DHT22;36499;46.484;13.832;2022-12-18T12:56:14;0.90;99.90
12470;DHT22;36499;46.484;13.832;2022-12-18T12:58:52;0.90;99.90
12470;DHT22;36499;46.484;13.832;2022-12-18T13:01:34;0.80;99.90
12470;DHT22;36499;46.484;13.832;2022-12-18T13:04:15;0.80;99.90
12470;DHT22;36499;46.484;13.832;2022-12-18T13:06:56;0.80;99.90
12470;DHT22;36499;46.484;13.832;2022-12-18T13:09:31;0.70;99.90
12470;DHT22;36499;46.484;13.832;2022-12-18T13:12:03;0.70;99.90
12470;DHT22;36499;46.484;13.832;2022-12-18T13:15:22;0.60;99.90
12470;DHT22;36499;46.484;13.832;2022-12-18T13:18:16;0.50;99.90
12470;DHT22;36499;46.484;13.832;2022-12-18T13:20:47;0.50;99.90
12470;DHT22;36499;46.484;13.832;2022-12-18T13:23:29;0.40;99.90
12470;DHT22;36499;46.484;13.832;2022-12-18T13:26:27;0.40;99.90
12470;DHT22;36499;46.484;13.832;2022-12-18T13:28:57;0.40;99.90
12470;DHT22;36499;46.484;13.832;2022-12-18T13:34:28;0.40;99.90
12470;DHT22;36499;46.484;13.832;2022-12-18T13:37:39;0.30;99.90
12470;DHT22;36499;46.484;13.832;2022-12-18T13:43:39;0.30;99.90
12470;DHT22;36499;46.484;13.832;2022-12-18T13:46:21;0.20;99.90
12470;DHT22;36499;46.484;13.832;2022-12-18T13:48:56;0.10;99.90
12470;DHT22;36499;46.484;13.832;2022-12-18T13:51:27;0.10;99.90
12470;DHT22;36499;46.484;13.832;2022-12-18T13:54:00;0.00;99.90
12470;DHT22;36499;46.484;13.832;2022-12-18T13:56:33;0.00;99.90
12470;DHT22;36499;46.484;13.832;2022-12-18T13:59:13;-0.10;99.90
12470;DHT22;36499;46.484;13.832;2022-12-18T14:01:47;-0.20;99.90
12470;DHT22;36499;46.484;13.832;2022-12-18T14:04:21;-0.20;99.90
12470;DHT22;36499;46.484;13.832;2022-12-18T14:06:52;-0.30;99.90
12470;DHT22;36499;46.484;13.832;2022-12-18T14:09:25;-0.30;99.90
12470;DHT22;36499;46.484;13.832;2022-12-18T14:11:55;-0.40;99.90
12470;DHT22;36499;46.484;13.832;2022-12-18T14:14:37;-0.30;99.90
12470;DHT22;36499;46.484;13.832;2022-12-18T14:17:09;-0.30;99.90
12470;DHT22;36499;46.484;13.832;2022-12-18T14:19:42;-0.30;99.90
12470;DHT22;36499;46.484;13.832;2022-12-18T14:22:15;-0.30;99.90
12470;DHT22;36499;46.484;13.832;2022-12-18T14:24:46;-0.30;99.90
12470;DHT22;36499;46.484;13.832;2022-12-18T14:27:30;-0.30;99.90
12470;DHT22;36499;46.484;13.832;2022-12-18T14:29:57;-0.30;99.90
12470;DHT22;36499;46.484;13.832;2022-12-18T14:32:24;-0.30;99.90
12470;DHT22;36499;46.484;13.832;2022-12-18T14:34:53;-0.30;99.90
12470;DHT22;36499;46.484;13.832;2022-12-18T14:37:23;-0.30;99.90
12470;DHT22;36499;46.484;13.832;2022-12-18T14:39:55;-0.30;99.90
12470;DHT22;36499;46.484;13.832;2022-12-18T14:42:24;-0.30;99.90
12470;DHT22;36499;46.484;13.832;2022-12-18T14:48:01;-0.40;99.90
12470;DHT22;36499;46.484;13.832;2022-12-18T14:50:33;-0.40;99.90
12470;DHT22;36499;46.484;13.832;2022-12-18T14:53:00;-0.50;99.90
12470;DHT22;36499;46.484;13.832;2022-12-18T14:55:28;-0.50;99.90
12470;DHT22;36499;46.484;13.832;2022-12-18T14:57:56;-0.60;99.90
12470;DHT22;36499;46.484;13.832;2022-12-18T15:00:25;-0.70;99.90
12470;DHT22;36499;46.484;13.832;2022-12-18T15:02:54;-0.70;99.90
12470;DHT22;36499;46.484;13.832;2022-12-18T15:05:26;-0.70;99.90
12470;DHT22;36499;46.484;13.832;2022-12-18T15:07:57;-0.70;99.90
12470;DHT22;36499;46.484;13.832;2022-12-18T15:10:28;-0.70;99.90
12470;DHT22;36499;46.484;13.832;2022-12-18T15:13:16;-0.70;99.90
12470;DHT22;36499;46.484;13.832;2022-12-18T15:15:49;-0.80;99.90
12470;DHT22;36499;46.484;13.832;2022-12-18T15:18:19;-0.70;99.90
12470;DHT22;36499;46.484;13.832;2022-12-18T15:20:49;-0.80;99.90
12470;DHT22;36499;46.484;13.832;2022-12-18T15:23:20;-0.80;99.90
12470;DHT22;36499;46.484;13.832;2022-12-18T15:25:55;-0.90;99.90
12470;DHT22;36499;46.484;13.832;2022-12-18T15:28:26;-0.90;99.90
12470;DHT22;36499;46.484;13.832;2022-12-18T15:31:03;-0.80;99.90
12470;DHT22;36499;46.484;13.832;2022-12-18T15:33:34;-0.80;99.90
12470;DHT22;36499;46.484;13.832;2022-12-18T15:36:07;-0.80;99.90
12470;DHT22;36499;46.484;13.832;2022-12-18T15:38:36;-0.80;99.90
12470;DHT22;36499;46.484;13.832;2022-12-18T15:41:08;-0.80;99.90
12470;DHT22;36499;46.484;13.832;2022-12-18T15:43:39;-0.80;99.90
12470;DHT22;36499;46.484;13.832;2022-12-18T15:46:11;-0.80;99.90
12470;DHT22;36499;46.484;13.832;2022-12-18T15:48:41;-0.80;99.90
12470;DHT22;36499;46.484;13.832;2022-12-18T15:51:13;-0.80;99.90
12470;DHT22;36499;46.484;13.832;2022-12-18T15:53:44;-0.80;99.90
12470;DHT22;36499;46.484;13.832;2022-12-18T15:56:14;-0.90;99.90
12470;DHT22;36499;46.484;13.832;2022-12-18T15:59:00;-0.80;99.90
12470;DHT22;36499;46.484;13.832;2022-12-18T16:01:29;-0.80;99.90
12470;DHT22;36499;46.484;13.832;2022-12-18T16:03:57;-0.90;99.90